Forbes Park, Colorado
Current Conditions -  °F | °C
As of 2:11 AM on Sunday 26 Oct 2014 (Local Time) from KVTP Reporting Station
Clear Clear  
Wind Chill: 38°   Ceiling: Unl
Heat Index: 45°   Visibility: 10mi
Dew Point: 28°   Wind: 13mph
Humidity: 53%   Direction: 200°SSW
Pressure: 30.28"   Gusts: 28mph
Location:  37.4744°N, 105.319°W
Report Text: KVTP 260811Z AUTO 20011G24KT 180V260 10SM CLR 07/M02 A3028 RMK AO2
Loading
Personal Weather Stations






























Interactive Weather Map
Tropical Storm Tracking
New forecast layout! Learn more

10-Day Weather Forecast

Advertisements
Track Severe Weather on mobile